Time;durP1;ratioP1;P1;durP2;ratioP2;P2;SDS_P1;SDS_P2;PMS_P1;PMS_P2;Temp;Humidity;BMP_temperature;BMP_pressure;BME280_temperature;BME280_humidity;BME280_pressure;Samples;Min_cycle;Max_cycle;Signal;HPM_P1;HPM_P2
2022/08/24 00:01:02;;;;;;;10.30;8.70;;;23.60;56.60;;;;;;5052857;28;20741;-42
2022/08/24 00:03:28;;;;;;;10.00;7.63;;;23.70;56.60;;;;;;5052576;28;20535;-43
2022/08/24 00:05:55;;;;;;;9.93;8.93;;;23.70;56.50;;;;;;5051933;28;20507;-42
2022/08/24 00:08:20;;;;;;;11.57;8.40;;;23.70;56.50;;;;;;5052499;28;20177;-42
2022/08/24 00:10:46;;;;;;;8.93;8.03;;;23.70;56.50;;;;;;5051769;28;20454;-42
2022/08/24 00:13:13;;;;;;;9.27;8.47;;;23.70;56.40;;;;;;5051994;28;20193;-43
2022/08/24 00:15:40;;;;;;;8.90;7.93;;;23.80;56.40;;;;;;5051845;28;20529;-42
2022/08/24 00:18:06;;;;;;;10.10;7.87;;;23.80;56.40;;;;;;5052607;28;20419;-43
2022/08/24 00:20:32;;;;;;;10.80;7.63;;;23.80;56.40;;;;;;5051611;28;20411;-43
2022/08/24 00:22:57;;;;;;;7.60;6.90;;;23.80;56.30;;;;;;5051995;28;20428;-42
2022/08/24 00:25:24;;;;;;;9.80;8.47;;;23.80;56.80;;;;;;5052156;28;20949;-42
2022/08/24 00:27:50;;;;;;;9.07;8.17;;;23.80;56.90;;;;;;5051889;28;20192;-43
2022/08/24 00:30:18;;;;;;;11.90;8.33;;;23.90;56.90;;;;;;5051796;28;20528;-43
2022/08/24 00:32:45;;;;;;;10.50;8.30;;;23.80;56.80;;;;;;5051586;28;20834;-42
2022/08/24 00:35:12;;;;;;;8.13;6.93;;;23.90;56.90;;;;;;5051884;28;20896;-43
2022/08/24 00:37:39;;;;;;;8.77;7.87;;;23.80;56.70;;;;;;5051590;28;20400;-43
2022/08/24 00:40:12;;;;;;;8.33;7.20;;;23.90;56.70;;;;;;5051599;28;20419;-42
2022/08/24 00:42:39;;;;;;;9.47;8.57;;;23.90;56.60;;;;;;5051471;28;20438;-42
2022/08/24 00:45:08;;;;;;;9.23;8.27;;;23.80;56.50;;;;;;5051746;28;20407;-43
2022/08/24 00:47:45;;;;;;;9.50;7.93;;;23.80;56.40;;;;;;5051412;28;20412;-43
2022/08/24 00:50:18;;;;;;;8.67;7.30;;;23.80;56.30;;;;;;5051586;28;20438;-43
2022/08/24 00:53:00;;;;;;;9.40;8.03;;;23.90;56.40;;;;;;5051650;28;20428;-43
2022/08/24 00:55:32;;;;;;;8.00;7.37;;;23.90;56.30;;;;;;5051657;28;20416;-43
2022/08/24 00:58:03;;;;;;;7.90;6.97;;;23.90;56.30;;;;;;5051730;28;20395;-43
2022/08/24 01:00:33;;;;;;;8.80;7.10;;;23.80;56.30;;;;;;5051688;28;20423;-43
2022/08/24 01:03:03;;;;;;;10.00;8.40;;;23.90;56.40;;;;;;5009253;28;1208886;-43
2022/08/24 01:05:34;;;;;;;9.00;8.10;;;23.80;56.40;;;;;;5052266;28;20181;-43
2022/08/24 01:08:03;;;;;;;9.77;7.30;;;23.90;56.50;;;;;;5052046;28;20786;-43
2022/08/24 01:10:35;;;;;;;8.47;7.13;;;23.80;56.30;;;;;;5034338;28;20459;-43
2022/08/24 01:13:04;;;;;;;9.10;7.60;;;23.80;56.20;;;;;;5052107;28;21099;-43
2022/08/24 01:15:33;;;;;;;8.33;7.53;;;23.90;56.20;;;;;;5052397;28;20407;-43
2022/08/24 01:20:48;;;;;;;7.10;6.40;;;23.90;56.30;;;;;;5052060;28;20387;-43
2022/08/24 01:23:35;;;;;;;9.97;8.33;;;23.80;56.20;;;;;;5051929;28;20641;-43
2022/08/24 01:26:01;;;;;;;10.40;8.73;;;23.80;56.30;;;;;;5051716;28;20821;-43
2022/08/24 01:28:29;;;;;;;8.93;7.70;;;23.80;56.20;;;;;;5051800;28;20460;-43
2022/08/24 01:30:55;;;;;;;8.90;8.07;;;23.80;56.40;;;;;;5051929;28;20450;-43
2022/08/24 01:33:28;;;;;;;9.40;8.50;;;23.80;56.30;;;;;;5054514;28;20989;-43
2022/08/24 01:36:04;;;;;;;9.17;8.27;;;23.80;56.30;;;;;;5055683;28;20147;-43
2022/08/24 01:38:31;;;;;;;10.73;8.43;;;23.70;56.30;;;;;;5037943;28;20560;-43
2022/08/24 01:41:01;;;;;;;9.20;8.20;;;23.70;56.30;;;;;;5055741;28;20962;-43
2022/08/24 01:43:27;;;;;;;8.50;7.70;;;23.70;56.30;;;;;;5055734;28;20910;-43
2022/08/24 01:45:53;;;;;;;10.00;8.73;;;23.70;56.30;;;;;;5055388;28;20914;-43
2022/08/24 01:48:19;;;;;;;9.57;8.60;;;23.70;56.20;;;;;;5055494;28;20410;-43
2022/08/24 01:50:46;;;;;;;7.77;7.00;;;23.70;56.30;;;;;;5055499;28;20451;-44
2022/08/24 01:53:12;;;;;;;11.70;7.20;;;23.70;56.20;;;;;;5055459;28;21167;-43
2022/08/24 01:55:39;;;;;;;9.10;7.80;;;23.60;56.10;;;;;;5055244;28;20404;-43
2022/08/24 01:58:05;;;;;;;8.67;7.77;;;23.60;56.10;;;;;;5055518;28;20403;-43
2022/08/24 02:00:31;;;;;;;9.20;8.30;;;23.60;56.10;;;;;;5055621;28;20523;-43
2022/08/24 02:02:57;;;;;;;15.17;8.73;;;23.60;56.10;;;;;;5055064;28;20462;-43
2022/08/24 02:05:23;;;;;;;9.00;8.10;;;23.60;56.10;;;;;;5055094;28;20412;-43
2022/08/24 02:07:50;;;;;;;9.80;8.47;;;23.60;56.00;;;;;;5055172;28;20223;-43
2022/08/24 02:10:17;;;;;;;8.53;7.73;;;23.60;56.00;;;;;;5055111;28;20958;-43
2022/08/24 02:12:56;;;;;;;9.47;7.67;;;23.50;56.10;;;;;;5055016;28;20514;-43
2022/08/24 02:15:26;;;;;;;10.70;8.50;;;23.50;56.10;;;;;;5054958;28;20550;-43
2022/08/24 02:17:53;;;;;;;8.87;7.97;;;23.50;56.30;;;;;;5054849;28;20415;-43
2022/08/24 02:20:20;;;;;;;11.73;8.20;;;23.40;56.10;;;;;;5054882;28;20412;-43
2022/08/24 02:22:47;;;;;;;8.33;7.43;;;23.40;56.20;;;;;;5054893;28;20441;-43
2022/08/24 02:25:14;;;;;;;10.00;8.50;;;23.50;56.30;;;;;;5037073;28;20814;-43
2022/08/24 02:27:40;;;;;;;9.47;8.57;;;23.40;56.10;;;;;;5054627;28;20415;-43
2022/08/24 02:30:06;;;;;;;9.60;7.93;;;23.40;56.10;;;;;;5054645;28;20451;-43
2022/08/24 02:32:32;;;;;;;9.73;8.73;;;23.40;56.20;;;;;;5054605;28;20431;-43
2022/08/24 02:34:58;;;;;;;8.73;7.80;;;23.40;56.20;;;;;;5054563;28;20516;-43
2022/08/24 02:37:24;;;;;;;9.60;7.70;;;23.40;56.10;;;;;;5054388;28;20180;-43
2022/08/24 02:39:51;;;;;;;8.17;7.47;;;23.30;56.00;;;;;;5054531;28;20873;-43
2022/08/24 02:42:17;;;;;;;9.57;7.23;;;23.40;56.00;;;;;;5054439;28;20693;-43
2022/08/24 02:44:43;;;;;;;8.30;7.43;;;23.30;55.80;;;;;;5054289;28;20410;-43
2022/08/24 02:47:11;;;;;;;9.50;7.03;;;23.30;55.80;;;;;;5054286;28;20809;-43
2022/08/24 02:49:37;;;;;;;11.37;8.30;;;23.30;55.70;;;;;;5054255;28;20412;-43
2022/08/24 02:52:03;;;;;;;10.47;7.87;;;23.30;55.60;;;;;;5054288;28;20407;-43
2022/08/24 02:54:29;;;;;;;9.03;8.17;;;23.20;55.50;;;;;;5054336;28;20165;-43
2022/08/24 02:56:55;;;;;;;8.67;7.40;;;23.20;55.40;;;;;;5054060;28;20406;-43
2022/08/24 02:59:22;;;;;;;8.67;7.90;;;23.10;55.30;;;;;;5054182;28;20302;-43
2022/08/24 03:01:48;;;;;;;10.33;7.57;;;23.10;55.30;;;;;;5053983;28;20404;-44
2022/08/24 03:04:14;;;;;;;12.70;7.73;;;23.00;55.20;;;;;;5054012;28;20780;-43
2022/08/24 03:06:41;;;;;;;8.30;7.60;;;23.00;55.30;;;;;;5053896;28;20400;-44
2022/08/24 03:09:07;;;;;;;11.10;8.97;;;23.00;55.30;;;;;;5054069;28;20407;-43
2022/08/24 03:11:33;;;;;;;10.53;8.70;;;23.00;55.20;;;;;;5054209;28;20459;-43
2022/08/24 03:13:59;;;;;;;9.50;6.90;;;22.90;55.10;;;;;;5053789;28;20791;-44
2022/08/24 03:16:26;;;;;;;10.47;9.37;;;22.90;55.10;;;;;;5053778;28;20436;-43
2022/08/24 03:18:52;;;;;;;9.33;7.87;;;22.90;55.10;;;;;;5053805;28;20219;-43
2022/08/24 03:21:18;;;;;;;11.57;9.07;;;22.90;55.10;;;;;;5053914;28;20416;-43
2022/08/24 03:23:44;;;;;;;8.40;7.60;;;22.90;55.20;;;;;;5053668;28;20850;-43
2022/08/24 03:26:11;;;;;;;8.83;7.93;;;22.90;55.20;;;;;;5053569;28;20945;-44
2022/08/24 03:28:37;;;;;;;9.27;8.10;;;22.80;55.10;;;;;;5053604;28;20173;-44
2022/08/24 03:31:03;;;;;;;10.17;7.50;;;22.70;55.20;;;;;;5053549;28;20551;-43
2022/08/24 03:33:29;;;;;;;8.63;7.73;;;22.70;55.20;;;;;;5053556;28;20934;-44
2022/08/24 03:35:55;;;;;;;9.67;8.53;;;22.70;55.30;;;;;;5053590;28;20752;-43
2022/08/24 03:38:22;;;;;;;9.30;8.30;;;22.70;55.40;;;;;;5053542;28;20404;-43
2022/08/24 03:40:47;;;;;;;10.37;6.87;;;22.70;55.40;;;;;;5053433;28;20495;-43
2022/08/24 03:43:44;;;;;;;8.07;7.30;;;22.70;55.40;;;;;;5053264;28;20507;-44
2022/08/24 03:46:01;;;;;;;7.90;7.10;;;22.70;55.50;;;;;;5052940;28;20193;-43
2022/08/24 03:48:28;;;;;;;9.10;6.80;;;22.70;55.40;;;;;;5053567;28;20482;-44
2022/08/24 03:50:54;;;;;;;10.40;8.07;;;22.70;55.40;;;;;;5053339;28;20498;-43
2022/08/24 03:53:20;;;;;;;9.43;8.53;;;22.60;55.30;;;;;;5053003;28;20779;-43
2022/08/24 03:55:46;;;;;;;8.73;7.50;;;22.60;55.30;;;;;;5052498;28;20404;-43
2022/08/24 03:58:12;;;;;;;12.53;8.87;;;22.70;55.30;;;;;;5053136;28;20929;-44
2022/08/24 04:00:41;;;;;;;14.03;9.20;;;22.70;55.40;;;;;;5053305;28;20184;-44
2022/08/24 04:03:08;;;;;;;9.20;8.30;;;22.60;55.30;;;;;;5052749;28;20455;-44
2022/08/24 04:05:35;;;;;;;9.57;8.50;;;22.60;55.30;;;;;;5052721;28;20771;-43
2022/08/24 04:08:01;;;;;;;11.30;9.30;;;22.60;55.40;;;;;;5052870;28;20414;-44
2022/08/24 04:10:27;;;;;;;10.83;8.93;;;22.60;55.50;;;;;;5052651;28;20443;-44
2022/08/24 04:12:53;;;;;;;9.53;7.50;;;22.60;55.70;;;;;;5052596;28;20792;-44
2022/08/24 04:15:19;;;;;;;16.47;10.50;;;22.60;55.80;;;;;;5052618;28;20768;-43
2022/08/24 04:17:44;;;;;;;9.30;8.40;;;22.70;55.90;;;;;;5052694;28;20169;-44
2022/08/24 04:20:10;;;;;;;11.73;8.43;;;22.70;55.90;;;;;;5052627;28;20181;-43
2022/08/24 04:22:36;;;;;;;12.20;9.10;;;22.60;56.00;;;;;;5052603;28;20185;-43
2022/08/24 04:25:04;;;;;;;9.10;7.63;;;22.70;56.00;;;;;;5052809;28;20495;-44
2022/08/24 04:27:30;;;;;;;9.63;8.47;;;22.70;56.00;;;;;;5034331;28;20931;-44
2022/08/24 04:29:56;;;;;;;13.10;8.67;;;22.70;56.00;;;;;;5052660;28;20454;-44
2022/08/24 04:32:21;;;;;;;12.23;9.77;;;22.70;56.00;;;;;;5052366;28;20991;-44
2022/08/24 04:34:47;;;;;;;10.77;8.37;;;22.70;56.10;;;;;;5052448;28;20408;-44
2022/08/24 04:37:13;;;;;;;7.57;6.87;;;22.80;56.10;;;;;;5052109;28;20816;-44
2022/08/24 04:39:40;;;;;;;13.23;8.20;;;22.80;56.10;;;;;;5052615;28;20181;-44
2022/08/24 04:42:07;;;;;;;12.90;8.83;;;22.80;56.20;;;;;;5052482;28;20464;-44
2022/08/24 04:44:33;;;;;;;11.57;9.00;;;22.80;56.20;;;;;;5052524;28;20408;-44
2022/08/24 04:47:00;;;;;;;9.20;8.13;;;22.90;56.20;;;;;;5052083;28;20926;-44
2022/08/24 04:49:26;;;;;;;10.60;9.20;;;22.90;56.30;;;;;;5052273;28;20169;-44
2022/08/24 04:51:53;;;;;;;8.80;7.90;;;22.90;56.20;;;;;;5051902;28;20455;-44
2022/08/24 04:54:19;;;;;;;9.97;8.97;;;22.90;56.30;;;;;;5052118;28;20408;-44
2022/08/24 04:56:44;;;;;;;9.60;8.10;;;23.00;56.30;;;;;;5051834;28;20416;-44
2022/08/24 04:59:10;;;;;;;10.97;9.17;;;23.00;56.30;;;;;;5052080;28;20181;-44
2022/08/24 05:01:36;;;;;;;11.50;8.50;;;23.10;56.30;;;;;;5052045;28;20174;-44
2022/08/24 05:04:03;;;;;;;11.50;10.33;;;23.10;56.40;;;;;;5051869;28;20201;-44
2022/08/24 05:06:31;;;;;;;13.00;10.87;;;23.10;56.40;;;;;;5051066;28;20404;-44
2022/08/24 05:08:59;;;;;;;12.47;9.60;;;23.20;56.20;;;;;;5074374;22;20624;-42
2022/08/24 05:11:28;;;;;;;10.80;9.17;;;23.20;56.00;;;;;;5071975;28;20487;-42
2022/08/24 05:13:55;;;;;;;11.77;9.60;;;23.20;55.90;;;;;;5071976;28;20395;-42
2022/08/24 05:16:21;;;;;;;10.90;9.17;;;23.20;55.90;;;;;;5071764;28;20406;-42
2022/08/24 05:18:48;;;;;;;10.43;9.33;;;23.30;56.00;;;;;;5071916;28;20446;-42
2022/08/24 05:21:17;;;;;;;13.80;9.63;;;23.30;55.80;;;;;;5071890;28;20403;-42
2022/08/24 05:23:44;;;;;;;14.00;10.30;;;23.40;55.60;;;;;;5071962;28;20462;-42
2022/08/24 05:26:19;;;;;;;18.07;10.50;;;23.40;55.40;;;;;;5071745;28;20504;-42
2022/08/24 05:28:46;;;;;;;13.07;11.07;;;23.40;55.30;;;;;;5072030;28;20427;-42
2022/08/24 05:31:19;;;;;;;15.87;9.93;;;23.50;55.40;;;;;;5071692;28;20452;-42
2022/08/24 05:33:47;;;;;;;13.27;9.90;;;23.50;55.00;;;;;;5071793;28;20407;-42
2022/08/24 05:36:28;;;;;;;12.03;9.83;;;23.50;54.90;;;;;;5071770;28;20406;-42
2022/08/24 05:38:55;;;;;;;15.57;10.10;;;23.60;54.80;;;;;;5071765;28;20411;-42
2022/08/24 05:41:22;;;;;;;14.43;10.07;;;23.60;54.90;;;;;;5071567;28;20403;-41
2022/08/24 05:43:47;;;;;;;11.37;9.80;;;23.60;54.50;;;;;;5071668;28;20890;-42
2022/08/24 05:46:14;;;;;;;11.37;9.50;;;23.70;54.50;;;;;;5071516;28;20418;-42
2022/08/24 05:48:41;;;;;;;13.67;9.53;;;23.70;54.50;;;;;;5071457;28;20200;-42
2022/08/24 05:51:08;;;;;;;14.07;9.33;;;23.70;54.40;;;;;;5071643;28;20449;-42
2022/08/24 05:53:34;;;;;;;9.10;8.13;;;23.80;54.40;;;;;;5071523;28;20414;-42
2022/08/24 05:56:05;;;;;;;13.63;9.40;;;23.80;54.10;;;;;;5071152;28;20402;-42
2022/08/24 05:58:31;;;;;;;10.37;8.80;;;23.90;54.10;;;;;;5071506;28;20510;-42
2022/08/24 06:00:58;;;;;;;11.20;9.60;;;23.90;54.10;;;;;;5071510;28;20551;-42
2022/08/24 06:03:25;;;;;;;14.80;10.57;;;23.90;54.00;;;;;;5071431;28;20439;-42
2022/08/24 06:05:51;;;;;;;9.77;8.47;;;24.00;53.90;;;;;;5071191;28;20427;-42
2022/08/24 06:08:17;;;;;;;9.03;8.13;;;23.90;53.80;;;;;;5071208;28;20450;-43
2022/08/24 06:10:46;;;;;;;14.37;9.70;;;24.00;53.80;;;;;;5071281;28;20451;-42
2022/08/24 06:13:13;;;;;;;11.33;10.07;;;24.10;53.90;;;;;;5071355;28;20407;-43
2022/08/24 06:15:40;;;;;;;12.60;10.03;;;24.10;53.90;;;;;;5071199;28;20736;-43
2022/08/24 06:18:07;;;;;;;14.07;10.60;;;24.20;53.80;;;;;;5071669;28;20430;-42
2022/08/24 06:20:38;;;;;;;11.67;9.87;;;24.20;53.60;;;;;;5075135;28;20406;-43
2022/08/24 06:23:04;;;;;;;10.00;9.00;;;24.20;53.60;;;;;;5074839;28;20494;-43
2022/08/24 06:28:14;;;;;;;17.67;11.53;;;24.30;53.80;;;;;;5074754;28;20464;-42
2022/08/24 06:30:41;;;;;;;11.70;9.70;;;24.30;53.40;;;;;;5074555;28;20451;-43
2022/08/24 06:33:08;;;;;;;11.87;10.60;;;24.40;53.30;;;;;;5074679;28;20603;-43
2022/08/24 06:35:34;;;;;;;13.37;10.70;;;24.40;52.90;;;;;;5074481;28;20910;-42
2022/08/24 06:38:00;;;;;;;15.07;11.47;;;24.40;52.80;;;;;;5074800;28;20501;-43
2022/08/24 06:40:26;;;;;;;17.47;12.73;;;24.40;53.00;;;;;;5073221;28;20173;-44
2022/08/24 06:42:52;;;;;;;12.03;10.73;;;24.40;53.10;;;;;;5074388;28;20407;-43
2022/08/24 06:45:20;;;;;;;12.63;10.63;;;24.50;53.00;;;;;;5074443;28;20938;-44
2022/08/24 06:47:46;;;;;;;15.33;11.40;;;24.50;53.10;;;;;;5074219;28;20418;-43
2022/08/24 06:50:12;;;;;;;13.00;10.47;;;24.50;53.00;;;;;;5074523;28;20941;-43
2022/08/24 06:52:38;;;;;;;12.80;10.27;;;24.60;52.90;;;;;;5074574;28;20165;-43
2022/08/24 06:55:05;;;;;;;12.77;10.13;;;24.60;52.70;;;;;;5074261;28;20565;-44
2022/08/24 06:57:31;;;;;;;15.23;10.27;;;24.70;52.80;;;;;;5073996;28;20423;-43
2022/08/24 06:59:57;;;;;;;15.70;10.40;;;24.70;52.80;;;;;;5074149;28;20770;-44
2022/08/24 07:02:22;;;;;;;12.00;9.30;;;24.70;52.80;;;;;;5072898;28;20415;-43
2022/08/24 07:04:48;;;;;;;13.23;9.80;;;24.70;52.70;;;;;;5074144;28;20199;-44
2022/08/24 07:07:16;;;;;;;11.70;9.97;;;24.80;52.80;;;;;;5073945;28;20295;-44
2022/08/24 07:09:41;;;;;;;10.83;9.30;;;24.80;52.70;;;;;;5073969;28;20180;-44
2022/08/24 07:12:07;;;;;;;12.97;10.80;;;24.90;52.90;;;;;;5073877;28;20406;-43
2022/08/24 07:14:33;;;;;;;12.33;10.93;;;24.90;52.80;;;;;;5073925;28;20407;-44
2022/08/24 07:16:59;;;;;;;13.57;11.00;;;24.90;52.60;;;;;;5073593;28;20168;-44
2022/08/24 07:19:25;;;;;;;15.30;11.00;;;25.00;52.50;;;;;;5073829;28;20782;-44
2022/08/24 07:21:56;;;;;;;16.03;11.00;;;24.90;52.30;;;;;;5073769;28;20410;-44
2022/08/24 07:24:22;;;;;;;13.43;10.60;;;24.90;52.30;;;;;;5073713;28;20168;-45
2022/08/24 07:26:48;;;;;;;14.33;10.93;;;24.90;52.50;;;;;;5073419;28;20925;-44
2022/08/24 07:29:14;;;;;;;14.73;10.50;;;25.00;52.30;;;;;;5073303;28;20475;-43
2022/08/24 07:31:42;;;;;;;12.23;10.97;;;25.00;52.30;;;;;;5072945;28;20204;-44
2022/08/24 07:34:09;;;;;;;11.37;10.17;;;25.10;52.40;;;;;;5073647;28;20402;-44
2022/08/24 07:36:36;;;;;;;11.60;9.93;;;25.10;52.40;;;;;;5073267;28;20402;-43
2022/08/24 07:39:04;;;;;;;31.47;12.33;;;25.10;52.50;;;;;;5073311;28;20472;-44
2022/08/24 07:41:30;;;;;;;15.80;10.03;;;25.20;52.10;;;;;;5073274;28;20411;-43
2022/08/24 07:43:57;;;;;;;14.40;10.43;;;25.20;52.20;;;;;;5073548;28;20490;-44
2022/08/24 07:46:23;;;;;;;12.13;10.33;;;25.20;51.40;;;;;;5073165;28;20457;-44
2022/08/24 07:48:49;;;;;;;11.90;10.60;;;25.20;51.80;;;;;;5073152;28;20522;-44
2022/08/24 07:51:17;;;;;;;13.10;10.33;;;25.30;52.10;;;;;;5073360;28;20533;-44
2022/08/24 07:53:43;;;;;;;20.40;10.97;;;25.30;51.90;;;;;;5073006;28;20886;-45
2022/08/24 07:56:09;;;;;;;14.87;9.23;;;25.40;51.90;;;;;;5073016;28;20399;-44
2022/08/24 07:58:35;;;;;;;12.00;10.53;;;25.40;52.00;;;;;;5073119;28;20510;-45
2022/08/24 08:01:03;;;;;;;15.40;9.93;;;25.40;51.30;;;;;;5073039;28;20464;-44
2022/08/24 08:03:32;;;;;;;14.73;10.00;;;25.50;51.30;;;;;;5072872;28;20779;-44
2022/08/24 08:06:04;;;;;;;9.13;8.20;;;25.50;51.70;;;;;;5072547;28;20971;-44
2022/08/24 08:08:33;;;;;;;12.97;10.47;;;25.60;51.70;;;;;;5072786;28;20829;-45
2022/08/24 08:11:00;;;;;;;13.47;9.07;;;25.60;51.40;;;;;;5072883;28;20454;-44
2022/08/24 08:13:26;;;;;;;10.23;9.20;;;25.70;51.50;;;;;;5071379;28;20933;-44
2022/08/24 08:15:52;;;;;;;12.47;10.37;;;25.70;51.60;;;;;;5072460;28;20399;-43
2022/08/24 08:18:18;;;;;;;14.30;9.20;;;25.70;51.30;;;;;;5072607;28;20550;-45
2022/08/24 08:20:44;;;;;;;12.47;10.47;;;25.80;51.70;;;;;;5072677;28;20168;-44
2022/08/24 08:25:56;;;;;;;12.63;9.77;;;25.80;51.50;;;;;;5072680;28;20585;-43
2022/08/24 08:28:23;;;;;;;12.00;9.23;;;25.90;51.30;;;;;;5072429;28;20465;-43
2022/08/24 08:30:49;;;;;;;13.00;11.53;;;25.90;51.20;;;;;;5072300;28;20446;-44
2022/08/24 08:33:15;;;;;;;15.10;8.60;;;25.90;51.10;;;;;;5072411;28;20536;-45
2022/08/24 08:35:43;;;;;;;10.93;9.23;;;26.00;51.50;;;;;;5072140;28;20282;-45
2022/08/24 08:38:10;;;;;;;12.10;7.60;;;26.00;51.70;;;;;;5072265;28;20426;-44
2022/08/24 08:40:44;;;;;;;13.03;9.50;;;26.10;51.90;;;;;;5072298;28;20414;-44
2022/08/24 08:43:27;;;;;;;12.50;9.03;;;26.20;51.90;;;;;;5072239;28;20421;-44
2022/08/24 08:46:08;;;;;;;10.57;8.10;;;26.30;51.80;;;;;;5072307;28;20418;-44
2022/08/24 08:48:42;;;;;;;10.73;8.13;;;26.40;51.50;;;;;;5072142;28;20914;-45
2022/08/24 08:51:45;;;;;;;11.20;7.97;;;26.60;51.60;;;;;;5072088;28;20524;-44
2022/08/24 08:54:14;;;;;;;11.10;7.93;;;26.70;51.20;;;;;;5072323;28;20403;-45
2022/08/24 08:56:51;;;;;;;8.97;8.13;;;26.70;50.30;;;;;;5071985;28;20411;-44
2022/08/24 08:59:43;;;;;;;8.50;7.50;;;26.70;50.70;;;;;;5072075;28;20415;-45
2022/08/24 09:02:27;;;;;;;8.80;7.90;;;26.90;50.90;;;;;;5072099;28;20379;-44
2022/08/24 09:05:31;;;;;;;9.33;7.53;;;26.90;50.70;;;;;;5071983;28;20418;-44
2022/08/24 09:08:16;;;;;;;1999.90;999.90;;;27.00;50.80;;;;;;5071834;28;20456;-43
2022/08/24 09:11:00;;;;;;;1999.90;999.90;;;27.00;51.10;;;;;;5071916;28;20521;-44
2022/08/24 09:14:07;;;;;;;1999.90;999.90;;;27.00;50.80;;;;;;5072240;28;20398;-42
2022/08/24 09:16:58;;;;;;;1999.90;999.90;;;27.10;50.60;;;;;;5071691;28;20478;-44
2022/08/24 09:19:58;;;;;;;1999.90;999.90;;;27.10;50.80;;;;;;5071908;28;20403;-44
2022/08/24 09:22:24;;;;;;;1999.90;999.90;;;27.10;50.60;;;;;;5071806;28;20403;-45
2022/08/24 09:25:23;;;;;;;157.57;116.27;;;27.10;50.40;;;;;;5071864;28;20418;-45
2022/08/24 09:27:59;;;;;;;95.20;25.57;;;27.10;50.20;;;;;;5071484;28;20429;-44
2022/08/24 09:30:34;;;;;;;1999.90;999.90;;;27.00;50.40;;;;;;5071752;28;20440;-43
2022/08/24 09:33:08;;;;;;;76.07;21.13;;;27.10;50.20;;;;;;5071833;28;20474;-45
2022/08/24 09:35:58;;;;;;;64.43;9.53;;;27.10;49.70;;;;;;5071828;28;20739;-44
2022/08/24 09:38:27;;;;;;;64.47;11.00;;;27.10;49.70;;;;;;5071682;28;20532;-44
2022/08/24 09:41:05;;;;;;;65.70;10.60;;;27.20;50.00;;;;;;5071673;28;20407;-44
2022/08/24 09:43:56;;;;;;;62.13;9.93;;;27.20;50.10;;;;;;5071730;28;20906;-44
2022/08/24 09:46:25;;;;;;;60.20;7.80;;;27.30;50.10;;;;;;5071249;28;20410;-44
2022/08/24 09:49:17;;;;;;;59.23;10.17;;;27.50;49.50;;;;;;5071808;28;20430;-43
2022/08/24 09:51:59;;;;;;;56.67;9.30;;;27.60;49.20;;;;;;5071839;28;20798;-44
2022/08/24 09:55:03;;;;;;;123.37;18.30;;;27.70;49.10;;;;;;5074593;28;20456;-44
2022/08/24 09:58:02;;;;;;;54.80;9.80;;;27.80;48.40;;;;;;5075342;28;20422;-44
2022/08/24 10:00:58;;;;;;;51.57;8.27;;;27.80;48.60;;;;;;5075314;28;20751;-43
2022/08/24 10:04:07;;;;;;;52.77;9.80;;;27.80;48.10;;;;;;5075227;28;20399;-42
2022/08/24 10:06:53;;;;;;;59.20;10.53;;;27.70;48.50;;;;;;5043237;28;20419;-44
2022/08/24 10:09:40;;;;;;;53.33;9.97;;;27.80;48.50;;;;;;5074980;28;20790;-44
2022/08/24 10:12:32;;;;;;;52.20;9.00;;;27.80;48.50;;;;;;5075020;28;20454;-43
2022/08/24 10:15:09;;;;;;;53.43;9.77;;;27.80;48.40;;;;;;5075110;28;20387;-43
2022/08/24 10:18:09;;;;;;;64.70;11.83;;;27.90;48.50;;;;;;5074734;28;20453;-44
2022/08/24 10:20:56;;;;;;;59.53;11.53;;;27.90;48.10;;;;;;5074888;28;20497;-43
2022/08/24 10:23:46;;;;;;;59.17;10.30;;;28.10;49.20;;;;;;5074888;28;20442;-43
2022/08/24 10:26:22;;;;;;;58.63;11.00;;;28.30;49.10;;;;;;5074982;28;20407;-43
2022/08/24 10:29:01;;;;;;;58.97;12.07;;;28.40;48.70;;;;;;5074751;28;20500;-44
2022/08/24 10:32:06;;;;;;;57.07;12.30;;;28.50;48.20;;;;;;5074704;28;20446;-44
2022/08/24 10:34:59;;;;;;;50.40;10.70;;;28.50;48.20;;;;;;5074903;28;20413;-43
2022/08/24 10:37:36;;;;;;;71.37;13.87;;;28.60;47.80;;;;;;5074518;28;20461;-43
2022/08/24 10:40:30;;;;;;;63.63;12.57;;;28.60;47.60;;;;;;5074559;28;20490;-43
2022/08/24 10:43:33;;;;;;;62.47;13.07;;;28.60;47.60;;;;;;5074619;28;20461;-43
2022/08/24 10:46:26;;;;;;;57.40;11.13;;;28.60;47.10;;;;;;5074328;28;20376;-44
2022/08/24 10:49:17;;;;;;;66.13;10.77;;;28.50;46.10;;;;;;5074236;28;20960;-43
2022/08/24 10:51:59;;;;;;;58.60;12.27;;;28.60;46.90;;;;;;5074572;28;20446;-44
2022/08/24 10:54:25;;;;;;;51.60;9.67;;;28.60;45.30;;;;;;5074321;28;20403;-43
2022/08/24 10:57:20;;;;;;;51.00;11.60;;;28.60;46.60;;;;;;5074127;28;20403;-44
2022/08/24 10:59:49;;;;;;;43.60;9.20;;;28.60;46.80;;;;;;5072063;28;20989;-44
2022/08/24 11:02:29;;;;;;;47.00;10.70;;;28.60;46.90;;;;;;5074299;28;20812;-43
2022/08/24 11:05:00;;;;;;;44.43;9.40;;;28.60;46.60;;;;;;5072801;28;20497;-44
2022/08/24 11:07:27;;;;;;;40.03;9.23;;;28.60;46.50;;;;;;5073818;28;20648;-43
2022/08/24 11:09:58;;;;;;;36.20;8.90;;;28.60;46.50;;;;;;5074044;28;20407;-43
2022/08/24 11:12:40;;;;;;;36.10;8.87;;;28.60;46.30;;;;;;5080071;23;20483;-44
2022/08/24 11:15:12;;;;;;;35.67;8.30;;;28.50;46.20;;;;;;5050190;28;20424;-43
2022/08/24 11:17:55;;;;;;;34.50;10.17;;;28.50;46.40;;;;;;5053641;28;20407;-43
2022/08/24 11:20:28;;;;;;;36.07;10.50;;;28.40;46.50;;;;;;5053760;28;20396;-44
2022/08/24 11:23:21;;;;;;;1999.90;999.90;;;28.40;46.50;;;;;;5053658;28;20408;-46
2022/08/24 11:26:06;;;;;;;1999.90;999.90;;;28.40;46.50;;;;;;5045182;28;20412;-44
2022/08/24 11:28:39;;;;;;;152.37;121.40;;;28.40;46.90;;;;;;5053693;28;20499;-43
2022/08/24 11:31:12;;;;;;;1999.90;999.90;;;28.40;47.80;;;;;;5053481;28;20851;-44
2022/08/24 11:33:51;;;;;;;1999.90;999.90;;;28.50;47.20;;;;;;5035739;28;20400;-43
2022/08/24 11:36:25;;;;;;;61.57;9.17;;;28.50;46.90;;;;;;5035448;28;20400;-42
2022/08/24 11:39:16;;;;;;;39.13;8.50;;;28.50;46.60;;;;;;5053477;28;20400;-44
2022/08/24 11:42:06;;;;;;;44.40;9.40;;;28.60;46.20;;;;;;5053605;28;20420;-42
2022/08/24 11:44:55;;;;;;;31.23;8.37;;;28.50;46.80;;;;;;5053380;28;20392;-43
2022/08/24 11:47:40;;;;;;;29.47;9.23;;;28.50;46.20;;;;;;5053142;28;20439;-44
2022/08/24 11:50:13;;;;;;;28.00;8.70;;;28.60;46.40;;;;;;5053236;28;20471;-43
2022/08/24 11:52:58;;;;;;;28.20;8.17;;;28.60;46.30;;;;;;5053133;28;20428;-43
2022/08/24 11:55:42;;;;;;;27.67;9.97;;;28.80;46.10;;;;;;5053210;28;20395;-43
2022/08/24 11:58:36;;;;;;;31.60;9.20;;;28.80;45.50;;;;;;5053134;28;20510;-43
2022/08/24 12:01:23;;;;;;;29.97;9.33;;;28.80;45.50;;;;;;5053030;28;20395;-43
2022/08/24 12:03:58;;;;;;;30.90;11.20;;;28.80;45.90;;;;;;5053017;28;20392;-43
2022/08/24 12:06:41;;;;;;;29.00;8.80;;;28.80;46.00;;;;;;5053028;28;20763;-43
2022/08/24 12:09:10;;;;;;;28.63;8.53;;;28.80;46.20;;;;;;5053077;28;20405;-44
2022/08/24 12:11:55;;;;;;;417.93;299.27;;;28.80;46.30;;;;;;5052445;28;20468;-43
2022/08/24 12:14:35;;;;;;;656.77;128.10;;;28.80;46.40;;;;;;5052871;28;20423;-43
2022/08/24 12:17:26;;;;;;;38.07;8.57;;;28.80;45.90;;;;;;5051969;28;20860;-43
2022/08/24 12:20:10;;;;;;;9.40;7.93;;;28.70;45.80;;;;;;5044387;28;20929;-43
2022/08/24 12:22:38;;;;;;;9.73;7.60;;;28.70;46.50;;;;;;5052564;28;20451;-43
2022/08/24 12:26:00;;;;;;;8.40;7.03;;;28.70;45.70;;;;;;5052761;28;20447;-43
2022/08/24 12:27:54;;;;;;;10.27;6.50;;;28.70;45.80;;;;;;5052235;28;20779;-43
2022/08/24 12:30:21;;;;;;;7.97;7.00;;;28.80;45.10;;;;;;5052305;28;20448;-43
2022/08/24 12:32:59;;;;;;;7.47;6.33;;;28.90;45.20;;;;;;5034467;28;20446;-44
2022/08/24 12:35:30;;;;;;;10.10;6.83;;;29.10;45.40;;;;;;5052318;28;20738;-44
2022/08/24 12:38:22;;;;;;;10.83;6.80;;;29.20;44.10;;;;;;5052204;28;20417;-42
2022/08/24 12:40:52;;;;;;;26.97;7.80;;;29.40;44.80;;;;;;5052267;28;20503;-44
2022/08/24 12:43:36;;;;;;;13.30;6.67;;;29.50;44.50;;;;;;5052356;28;20446;-44
2022/08/24 12:46:05;;;;;;;16.67;7.63;;;29.60;43.80;;;;;;5052140;28;20497;-45
2022/08/24 12:48:57;;;;;;;14.37;6.47;;;29.80;44.10;;;;;;5052187;28;20414;-44
2022/08/24 12:52:00;;;;;;;16.03;6.83;;;29.90;43.20;;;;;;5052024;28;20511;-44
2022/08/24 12:54:46;;;;;;;24.70;8.20;;;30.00;44.30;;;;;;5052114;28;20501;-45
2022/08/24 12:57:51;;;;;;;22.10;6.30;;;30.10;44.20;;;;;;5051932;28;20401;-45
2022/08/24 13:00:26;;;;;;;28.93;7.57;;;30.10;44.10;;;;;;5052262;28;20407;-45
2022/08/24 13:03:00;;;;;;;30.67;9.10;;;30.10;44.00;;;;;;5051849;28;21023;-45
2022/08/24 13:05:43;;;;;;;32.30;9.00;;;30.10;43.20;;;;;;5051894;28;20419;-46
2022/08/24 13:08:12;;;;;;;33.27;8.43;;;29.90;43.30;;;;;;5052173;28;20400;-46
2022/08/24 13:10:44;;;;;;;33.57;8.30;;;29.90;43.40;;;;;;5051874;28;20818;-46